sensor_id;sensor_type;location;lat;lon;timestamp;P1;durP1;ratioP1;P2;durP2;ratioP2
29168;SDS011;16219;42.864;23.360;2023-07-31T00:00:41;7.40;;;6.65;;
29168;SDS011;16219;42.864;23.360;2023-07-31T00:03:08;22.08;;;12.35;;
29168;SDS011;16219;42.864;23.360;2023-07-31T00:05:35;32.65;;;16.40;;
29168;SDS011;16219;42.864;23.360;2023-07-31T00:08:02;11.57;;;7.75;;
29168;SDS011;16219;42.864;23.360;2023-07-31T00:10:29;60.05;;;32.05;;
29168;SDS011;16219;42.864;23.360;2023-07-31T00:12:56;22.70;;;16.92;;
29168;SDS011;16219;42.864;23.360;2023-07-31T00:15:25;44.38;;;23.65;;
29168;SDS011;16219;42.864;23.360;2023-07-31T00:17:52;27.48;;;18.58;;
29168;SDS011;16219;42.864;23.360;2023-07-31T00:20:19;16.60;;;15.02;;
29168;SDS011;16219;42.864;23.360;2023-07-31T00:22:46;14.25;;;10.82;;
29168;SDS011;16219;42.864;23.360;2023-07-31T00:25:13;8.02;;;6.20;;
29168;SDS011;16219;42.864;23.360;2023-07-31T00:27:40;20.33;;;11.32;;
29168;SDS011;16219;42.864;23.360;2023-07-31T00:30:10;22.20;;;16.17;;
29168;SDS011;16219;42.864;23.360;2023-07-31T00:32:39;28.05;;;17.65;;
29168;SDS011;16219;42.864;23.360;2023-07-31T00:35:06;37.25;;;17.27;;
29168;SDS011;16219;42.864;23.360;2023-07-31T00:37:33;15.45;;;10.07;;
29168;SDS011;16219;42.864;23.360;2023-07-31T00:40:01;25.05;;;18.85;;
29168;SDS011;16219;42.864;23.360;2023-07-31T00:42:29;100.72;;;36.95;;
29168;SDS011;16219;42.864;23.360;2023-07-31T00:44:56;29.75;;;22.13;;
29168;SDS011;16219;42.864;23.360;2023-07-31T00:47:23;50.70;;;27.20;;
29168;SDS011;16219;42.864;23.360;2023-07-31T00:49:53;37.08;;;14.70;;
29168;SDS011;16219;42.864;23.360;2023-07-31T00:52:21;19.13;;;15.43;;
29168;SDS011;16219;42.864;23.360;2023-07-31T00:54:48;41.13;;;24.20;;
29168;SDS011;16219;42.864;23.360;2023-07-31T00:57:15;57.42;;;23.13;;
29168;SDS011;16219;42.864;23.360;2023-07-31T00:59:43;25.88;;;19.60;;
29168;SDS011;16219;42.864;23.360;2023-07-31T01:02:11;23.13;;;18.92;;
29168;SDS011;16219;42.864;23.360;2023-07-31T01:04:39;42.13;;;26.02;;
29168;SDS011;16219;42.864;23.360;2023-07-31T01:07:11;22.85;;;18.15;;
29168;SDS011;16219;42.864;23.360;2023-07-31T01:09:44;19.02;;;14.70;;
29168;SDS011;16219;42.864;23.360;2023-07-31T01:12:20;26.15;;;21.55;;
29168;SDS011;16219;42.864;23.360;2023-07-31T01:15:02;14.57;;;13.18;;
29168;SDS011;16219;42.864;23.360;2023-07-31T01:17:30;12.65;;;10.90;;
29168;SDS011;16219;42.864;23.360;2023-07-31T01:19:58;6.90;;;6.40;;
29168;SDS011;16219;42.864;23.360;2023-07-31T01:22:36;7.97;;;7.35;;
29168;SDS011;16219;42.864;23.360;2023-07-31T01:25:15;32.28;;;23.83;;
29168;SDS011;16219;42.864;23.360;2023-07-31T01:27:56;9.23;;;8.38;;
29168;SDS011;16219;42.864;23.360;2023-07-31T01:30:29;12.73;;;10.90;;
29168;SDS011;16219;42.864;23.360;2023-07-31T01:33:01;16.00;;;13.02;;
29168;SDS011;16219;42.864;23.360;2023-07-31T01:35:32;11.23;;;9.68;;
29168;SDS011;16219;42.864;23.360;2023-07-31T01:38:00;15.05;;;13.93;;
29168;SDS011;16219;42.864;23.360;2023-07-31T01:40:27;10.32;;;9.48;;
29168;SDS011;16219;42.864;23.360;2023-07-31T01:42:55;11.68;;;9.60;;
29168;SDS011;16219;42.864;23.360;2023-07-31T01:45:22;26.05;;;23.55;;
29168;SDS011;16219;42.864;23.360;2023-07-31T01:47:49;18.27;;;16.80;;
29168;SDS011;16219;42.864;23.360;2023-07-31T01:50:16;26.10;;;20.08;;
29168;SDS011;16219;42.864;23.360;2023-07-31T01:52:43;18.63;;;16.85;;
29168;SDS011;16219;42.864;23.360;2023-07-31T01:55:10;16.95;;;15.48;;
29168;SDS011;16219;42.864;23.360;2023-07-31T01:57:37;38.72;;;34.33;;
29168;SDS011;16219;42.864;23.360;2023-07-31T02:00:07;23.77;;;21.83;;
29168;SDS011;16219;42.864;23.360;2023-07-31T02:02:37;14.48;;;13.00;;
29168;SDS011;16219;42.864;23.360;2023-07-31T02:05:04;27.58;;;24.77;;
29168;SDS011;16219;42.864;23.360;2023-07-31T02:07:31;25.08;;;22.75;;
29168;SDS011;16219;42.864;23.360;2023-07-31T02:09:58;23.33;;;21.23;;
29168;SDS011;16219;42.864;23.360;2023-07-31T02:12:25;32.38;;;27.35;;
29168;SDS011;16219;42.864;23.360;2023-07-31T02:14:55;30.33;;;27.13;;
29168;SDS011;16219;42.864;23.360;2023-07-31T02:17:25;42.75;;;31.48;;
29168;SDS011;16219;42.864;23.360;2023-07-31T02:19:53;38.15;;;25.98;;
29168;SDS011;16219;42.864;23.360;2023-07-31T02:22:20;52.88;;;40.80;;
29168;SDS011;16219;42.864;23.360;2023-07-31T02:24:47;45.10;;;30.75;;
29168;SDS011;16219;42.864;23.360;2023-07-31T02:27:14;43.85;;;29.60;;
29168;SDS011;16219;42.864;23.360;2023-07-31T02:29:41;49.50;;;27.13;;
29168;SDS011;16219;42.864;23.360;2023-07-31T02:32:08;51.47;;;31.23;;
29168;SDS011;16219;42.864;23.360;2023-07-31T02:34:36;82.25;;;41.97;;
29168;SDS011;16219;42.864;23.360;2023-07-31T02:37:03;20.30;;;18.27;;
29168;SDS011;16219;42.864;23.360;2023-07-31T02:39:31;28.65;;;25.52;;
29168;SDS011;16219;42.864;23.360;2023-07-31T02:41:59;17.63;;;15.98;;
29168;SDS011;16219;42.864;23.360;2023-07-31T02:44:26;12.73;;;11.45;;
29168;SDS011;16219;42.864;23.360;2023-07-31T02:46:53;14.70;;;13.35;;
29168;SDS011;16219;42.864;23.360;2023-07-31T02:49:20;16.33;;;14.82;;
29168;SDS011;16219;42.864;23.360;2023-07-31T02:51:49;12.65;;;11.80;;
29168;SDS011;16219;42.864;23.360;2023-07-31T02:54:16;11.73;;;10.68;;
29168;SDS011;16219;42.864;23.360;2023-07-31T02:56:42;16.65;;;15.32;;
29168;SDS011;16219;42.864;23.360;2023-07-31T02:59:09;16.35;;;13.60;;
29168;SDS011;16219;42.864;23.360;2023-07-31T03:01:36;17.50;;;16.15;;
29168;SDS011;16219;42.864;23.360;2023-07-31T03:04:04;21.85;;;19.88;;
29168;SDS011;16219;42.864;23.360;2023-07-31T03:06:31;22.13;;;19.77;;
29168;SDS011;16219;42.864;23.360;2023-07-31T03:08:59;15.30;;;14.07;;
29168;SDS011;16219;42.864;23.360;2023-07-31T03:11:27;26.10;;;20.50;;
29168;SDS011;16219;42.864;23.360;2023-07-31T03:13:55;44.30;;;20.60;;
29168;SDS011;16219;42.864;23.360;2023-07-31T03:16:22;57.88;;;26.85;;
29168;SDS011;16219;42.864;23.360;2023-07-31T03:18:49;34.83;;;22.63;;
29168;SDS011;16219;42.864;23.360;2023-07-31T03:21:16;85.30;;;33.35;;
29168;SDS011;16219;42.864;23.360;2023-07-31T03:23:43;33.65;;;22.70;;
29168;SDS011;16219;42.864;23.360;2023-07-31T03:26:11;96.10;;;49.17;;
29168;SDS011;16219;42.864;23.360;2023-07-31T03:28:39;35.33;;;25.20;;
29168;SDS011;16219;42.864;23.360;2023-07-31T03:31:06;167.95;;;65.88;;
29168;SDS011;16219;42.864;23.360;2023-07-31T03:33:33;38.67;;;30.20;;
29168;SDS011;16219;42.864;23.360;2023-07-31T03:36:00;62.80;;;36.13;;
29168;SDS011;16219;42.864;23.360;2023-07-31T03:38:29;59.60;;;25.92;;
29168;SDS011;16219;42.864;23.360;2023-07-31T03:40:56;16.30;;;12.15;;
29168;SDS011;16219;42.864;23.360;2023-07-31T03:43:25;47.25;;;27.75;;
29168;SDS011;16219;42.864;23.360;2023-07-31T03:45:53;53.40;;;26.70;;
29168;SDS011;16219;42.864;23.360;2023-07-31T03:48:20;47.60;;;21.23;;
29168;SDS011;16219;42.864;23.360;2023-07-31T03:50:47;69.38;;;29.15;;
29168;SDS011;16219;42.864;23.360;2023-07-31T03:53:15;27.95;;;25.17;;
29168;SDS011;16219;42.864;23.360;2023-07-31T03:55:42;36.65;;;21.77;;
29168;SDS011;16219;42.864;23.360;2023-07-31T03:58:10;34.30;;;27.80;;
29168;SDS011;16219;42.864;23.360;2023-07-31T04:00:39;34.75;;;26.00;;
29168;SDS011;16219;42.864;23.360;2023-07-31T04:03:07;22.23;;;19.88;;
29168;SDS011;16219;42.864;23.360;2023-07-31T04:05:37;24.27;;;21.67;;
29168;SDS011;16219;42.864;23.360;2023-07-31T04:08:05;25.20;;;23.00;;
29168;SDS011;16219;42.864;23.360;2023-07-31T04:10:32;23.33;;;21.02;;
29168;SDS011;16219;42.864;23.360;2023-07-31T04:12:59;20.60;;;16.45;;
29168;SDS011;16219;42.864;23.360;2023-07-31T04:15:26;14.23;;;12.52;;
29168;SDS011;16219;42.864;23.360;2023-07-31T04:17:55;11.90;;;10.82;;
29168;SDS011;16219;42.864;23.360;2023-07-31T04:20:22;21.45;;;18.20;;
29168;SDS011;16219;42.864;23.360;2023-07-31T04:22:49;12.70;;;11.68;;
29168;SDS011;16219;42.864;23.360;2023-07-31T04:25:16;3.58;;;3.33;;
29168;SDS011;16219;42.864;23.360;2023-07-31T04:27:43;14.48;;;9.98;;
29168;SDS011;16219;42.864;23.360;2023-07-31T04:30:10;4.88;;;4.53;;
29168;SDS011;16219;42.864;23.360;2023-07-31T04:32:38;3.92;;;3.60;;
29168;SDS011;16219;42.864;23.360;2023-07-31T04:35:06;2.50;;;2.35;;
29168;SDS011;16219;42.864;23.360;2023-07-31T04:37:34;2.13;;;2.00;;
29168;SDS011;16219;42.864;23.360;2023-07-31T04:40:01;7.43;;;3.42;;
29168;SDS011;16219;42.864;23.360;2023-07-31T04:42:28;4.35;;;3.53;;
29168;SDS011;16219;42.864;23.360;2023-07-31T04:44:55;5.50;;;5.05;;
29168;SDS011;16219;42.864;23.360;2023-07-31T04:47:22;2.75;;;2.40;;
29168;SDS011;16219;42.864;23.360;2023-07-31T04:49:49;1.95;;;1.27;;
29168;SDS011;16219;42.864;23.360;2023-07-31T04:52:18;1.30;;;1.00;;
29168;SDS011;16219;42.864;23.360;2023-07-31T04:54:45;1.67;;;1.25;;
29168;SDS011;16219;42.864;23.360;2023-07-31T04:57:13;1.55;;;1.45;;
29168;SDS011;16219;42.864;23.360;2023-07-31T04:59:40;3.63;;;1.35;;
29168;SDS011;16219;42.864;23.360;2023-07-31T05:02:07;0.80;;;0.80;;
29168;SDS011;16219;42.864;23.360;2023-07-31T05:04:35;1.00;;;1.00;;
29168;SDS011;16219;42.864;23.360;2023-07-31T05:07:02;1.17;;;1.00;;
29168;SDS011;16219;42.864;23.360;2023-07-31T05:09:31;1.42;;;1.20;;
29168;SDS011;16219;42.864;23.360;2023-07-31T05:11:58;1.25;;;0.93;;
29168;SDS011;16219;42.864;23.360;2023-07-31T05:14:26;3.67;;;1.05;;
29168;SDS011;16219;42.864;23.360;2023-07-31T05:16:53;1.23;;;1.13;;
29168;SDS011;16219;42.864;23.360;2023-07-31T05:19:21;2.38;;;1.15;;
29168;SDS011;16219;42.864;23.360;2023-07-31T05:21:48;1.30;;;1.13;;
29168;SDS011;16219;42.864;23.360;2023-07-31T05:24:15;0.90;;;0.90;;
29168;SDS011;16219;42.864;23.360;2023-07-31T05:26:44;0.90;;;0.77;;
29168;SDS011;16219;42.864;23.360;2023-07-31T05:29:11;5.88;;;1.95;;
29168;SDS011;16219;42.864;23.360;2023-07-31T05:31:39;2.35;;;1.70;;
29168;SDS011;16219;42.864;23.360;2023-07-31T05:34:06;2.47;;;1.50;;
29168;SDS011;16219;42.864;23.360;2023-07-31T05:36:33;1.80;;;1.27;;
29168;SDS011;16219;42.864;23.360;2023-07-31T05:39:00;1.88;;;1.70;;
29168;SDS011;16219;42.864;23.360;2023-07-31T05:41:32;1.45;;;1.20;;
29168;SDS011;16219;42.864;23.360;2023-07-31T05:44:01;2.33;;;1.92;;
29168;SDS011;16219;42.864;23.360;2023-07-31T05:46:29;2.53;;;1.80;;
29168;SDS011;16219;42.864;23.360;2023-07-31T05:48:56;1.70;;;1.60;;
29168;SDS011;16219;42.864;23.360;2023-07-31T05:51:26;1.77;;;1.67;;
29168;SDS011;16219;42.864;23.360;2023-07-31T05:53:53;2.45;;;1.25;;
29168;SDS011;16219;42.864;23.360;2023-07-31T05:56:20;1.42;;;1.27;;
29168;SDS011;16219;42.864;23.360;2023-07-31T05:58:48;2.60;;;1.85;;
29168;SDS011;16219;42.864;23.360;2023-07-31T06:01:17;2.88;;;2.35;;
29168;SDS011;16219;42.864;23.360;2023-07-31T06:03:46;2.22;;;1.75;;
29168;SDS011;16219;42.864;23.360;2023-07-31T06:06:14;5.75;;;2.63;;
29168;SDS011;16219;42.864;23.360;2023-07-31T06:08:41;3.30;;;2.40;;
29168;SDS011;16219;42.864;23.360;2023-07-31T06:11:08;4.55;;;2.75;;
29168;SDS011;16219;42.864;23.360;2023-07-31T06:13:36;3.17;;;2.38;;
29168;SDS011;16219;42.864;23.360;2023-07-31T06:16:04;2.35;;;1.88;;
29168;SDS011;16219;42.864;23.360;2023-07-31T06:18:33;3.30;;;2.08;;
29168;SDS011;16219;42.864;23.360;2023-07-31T06:21:00;3.80;;;2.45;;
29168;SDS011;16219;42.864;23.360;2023-07-31T06:23:28;2.08;;;1.85;;
29168;SDS011;16219;42.864;23.360;2023-07-31T06:25:55;2.33;;;2.13;;
29168;SDS011;16219;42.864;23.360;2023-07-31T06:28:25;3.10;;;2.20;;
29168;SDS011;16219;42.864;23.360;2023-07-31T06:30:54;3.85;;;2.58;;
29168;SDS011;16219;42.864;23.360;2023-07-31T06:33:21;7.18;;;2.85;;
29168;SDS011;16219;42.864;23.360;2023-07-31T06:35:50;4.35;;;2.25;;
29168;SDS011;16219;42.864;23.360;2023-07-31T06:38:19;3.97;;;2.50;;
29168;SDS011;16219;42.864;23.360;2023-07-31T06:40:48;3.10;;;2.60;;
29168;SDS011;16219;42.864;23.360;2023-07-31T06:43:16;2.25;;;1.45;;
29168;SDS011;16219;42.864;23.360;2023-07-31T06:45:43;1.95;;;1.67;;
29168;SDS011;16219;42.864;23.360;2023-07-31T06:48:11;2.42;;;1.80;;
29168;SDS011;16219;42.864;23.360;2023-07-31T06:50:39;1.65;;;1.55;;
29168;SDS011;16219;42.864;23.360;2023-07-31T06:53:08;2.70;;;1.63;;
29168;SDS011;16219;42.864;23.360;2023-07-31T06:55:35;2.30;;;1.77;;
29168;SDS011;16219;42.864;23.360;2023-07-31T06:58:03;2.85;;;2.10;;
29168;SDS011;16219;42.864;23.360;2023-07-31T07:00:31;2.10;;;1.90;;
29168;SDS011;16219;42.864;23.360;2023-07-31T07:02:59;2.95;;;1.60;;
29168;SDS011;16219;42.864;23.360;2023-07-31T07:05:26;1.65;;;1.55;;
29168;SDS011;16219;42.864;23.360;2023-07-31T07:07:53;5.15;;;2.88;;
29168;SDS011;16219;42.864;23.360;2023-07-31T07:10:22;1.73;;;1.63;;
29168;SDS011;16219;42.864;23.360;2023-07-31T07:12:49;2.20;;;1.60;;
29168;SDS011;16219;42.864;23.360;2023-07-31T07:15:17;2.00;;;1.90;;
29168;SDS011;16219;42.864;23.360;2023-07-31T07:17:45;2.70;;;1.85;;
29168;SDS011;16219;42.864;23.360;2023-07-31T07:20:12;2.25;;;1.80;;
29168;SDS011;16219;42.864;23.360;2023-07-31T07:22:39;2.25;;;1.50;;
29168;SDS011;16219;42.864;23.360;2023-07-31T07:25:08;2.08;;;1.40;;
29168;SDS011;16219;42.864;23.360;2023-07-31T07:27:37;3.75;;;2.33;;
29168;SDS011;16219;42.864;23.360;2023-07-31T07:30:04;2.33;;;1.40;;
29168;SDS011;16219;42.864;23.360;2023-07-31T07:32:32;8.43;;;2.47;;
29168;SDS011;16219;42.864;23.360;2023-07-31T07:35:00;2.58;;;1.83;;
29168;SDS011;16219;42.864;23.360;2023-07-31T07:37:27;4.63;;;2.78;;
29168;SDS011;16219;42.864;23.360;2023-07-31T07:39:54;2.20;;;1.70;;
29168;SDS011;16219;42.864;23.360;2023-07-31T07:42:22;1.70;;;1.48;;
29168;SDS011;16219;42.864;23.360;2023-07-31T07:44:51;2.80;;;1.65;;
29168;SDS011;16219;42.864;23.360;2023-07-31T07:47:18;2.40;;;1.92;;
29168;SDS011;16219;42.864;23.360;2023-07-31T07:49:45;2.00;;;1.55;;
29168;SDS011;16219;42.864;23.360;2023-07-31T07:52:13;1.45;;;1.35;;
29168;SDS011;16219;42.864;23.360;2023-07-31T07:54:40;2.25;;;2.05;;
29168;SDS011;16219;42.864;23.360;2023-07-31T07:57:07;3.92;;;2.25;;
29168;SDS011;16219;42.864;23.360;2023-07-31T07:59:35;1.83;;;1.40;;
29168;SDS011;16219;42.864;23.360;2023-07-31T08:02:03;2.03;;;1.77;;
29168;SDS011;16219;42.864;23.360;2023-07-31T08:04:30;1.25;;;1.23;;
29168;SDS011;16219;42.864;23.360;2023-07-31T08:06:57;2.40;;;1.88;;
29168;SDS011;16219;42.864;23.360;2023-07-31T08:09:25;1.98;;;1.88;;
29168;SDS011;16219;42.864;23.360;2023-07-31T08:11:52;3.10;;;1.80;;
29168;SDS011;16219;42.864;23.360;2023-07-31T08:14:20;1.75;;;1.50;;
29168;SDS011;16219;42.864;23.360;2023-07-31T08:16:47;3.95;;;2.10;;
29168;SDS011;16219;42.864;23.360;2023-07-31T08:19:15;2.05;;;1.55;;
29168;SDS011;16219;42.864;23.360;2023-07-31T08:21:42;2.42;;;1.58;;
29168;SDS011;16219;42.864;23.360;2023-07-31T08:24:10;1.75;;;1.65;;
29168;SDS011;16219;42.864;23.360;2023-07-31T08:26:37;1.35;;;1.25;;
29168;SDS011;16219;42.864;23.360;2023-07-31T08:29:04;1.52;;;1.42;;
29168;SDS011;16219;42.864;23.360;2023-07-31T08:31:31;1.67;;;1.58;;
29168;SDS011;16219;42.864;23.360;2023-07-31T08:33:58;1.55;;;1.25;;
29168;SDS011;16219;42.864;23.360;2023-07-31T08:36:27;0.88;;;0.88;;
29168;SDS011;16219;42.864;23.360;2023-07-31T08:38:55;2.55;;;1.50;;
29168;SDS011;16219;42.864;23.360;2023-07-31T08:41:22;1.52;;;1.42;;
29168;SDS011;16219;42.864;23.360;2023-07-31T08:43:49;1.58;;;1.25;;
29168;SDS011;16219;42.864;23.360;2023-07-31T08:46:16;2.67;;;1.08;;
29168;SDS011;16219;42.864;23.360;2023-07-31T08:48:45;1.58;;;1.17;;
29168;SDS011;16219;42.864;23.360;2023-07-31T08:51:13;1.15;;;0.95;;
29168;SDS011;16219;42.864;23.360;2023-07-31T08:53:42;0.80;;;0.80;;
29168;SDS011;16219;42.864;23.360;2023-07-31T08:56:10;1.00;;;0.95;;
29168;SDS011;16219;42.864;23.360;2023-07-31T08:58:40;2.15;;;1.38;;
29168;SDS011;16219;42.864;23.360;2023-07-31T09:01:08;1.95;;;1.30;;
29168;SDS011;16219;42.864;23.360;2023-07-31T09:03:36;0.98;;;0.70;;
29168;SDS011;16219;42.864;23.360;2023-07-31T09:06:05;1.05;;;0.98;;
29168;SDS011;16219;42.864;23.360;2023-07-31T09:08:33;0.60;;;0.60;;
29168;SDS011;16219;42.864;23.360;2023-07-31T09:11:02;0.70;;;0.70;;
29168;SDS011;16219;42.864;23.360;2023-07-31T09:13:30;1.95;;;1.25;;
29168;SDS011;16219;42.864;23.360;2023-07-31T09:15:58;0.90;;;0.85;;
29168;SDS011;16219;42.864;23.360;2023-07-31T09:18:25;0.70;;;0.70;;
29168;SDS011;16219;42.864;23.360;2023-07-31T09:21:02;0.98;;;0.80;;
29168;SDS011;16219;42.864;23.360;2023-07-31T09:26:17;0.98;;;0.88;;
29168;SDS011;16219;42.864;23.360;2023-07-31T09:28:56;1.15;;;0.68;;
29168;SDS011;16219;42.864;23.360;2023-07-31T09:31:31;0.63;;;0.60;;
29168;SDS011;16219;42.864;23.360;2023-07-31T09:33:59;1.35;;;1.20;;
29168;SDS011;16219;42.864;23.360;2023-07-31T09:36:28;0.80;;;0.80;;
29168;SDS011;16219;42.864;23.360;2023-07-31T09:38:58;1.33;;;1.20;;
29168;SDS011;16219;42.864;23.360;2023-07-31T09:41:30;1.25;;;1.15;;
29168;SDS011;16219;42.864;23.360;2023-07-31T09:43:57;0.70;;;0.70;;
29168;SDS011;16219;42.864;23.360;2023-07-31T09:46:26;2.40;;;1.25;;
29168;SDS011;16219;42.864;23.360;2023-07-31T09:49:02;8.15;;;0.98;;
29168;SDS011;16219;42.864;23.360;2023-07-31T09:51:31;0.43;;;0.43;;
29168;SDS011;16219;42.864;23.360;2023-07-31T09:54:04;0.77;;;0.77;;
29168;SDS011;16219;42.864;23.360;2023-07-31T09:56:37;0.55;;;0.55;;
29168;SDS011;16219;42.864;23.360;2023-07-31T09:59:08;1.35;;;0.88;;
29168;SDS011;16219;42.864;23.360;2023-07-31T10:01:40;0.70;;;0.63;;
29168;SDS011;16219;42.864;23.360;2023-07-31T10:04:08;0.60;;;0.60;;
29168;SDS011;16219;42.864;23.360;2023-07-31T10:06:38;0.82;;;0.60;;
29168;SDS011;16219;42.864;23.360;2023-07-31T10:09:07;0.77;;;0.50;;
29168;SDS011;16219;42.864;23.360;2023-07-31T10:11:38;2.17;;;0.73;;
29168;SDS011;16219;42.864;23.360;2023-07-31T10:14:09;0.63;;;0.63;;
29168;SDS011;16219;42.864;23.360;2023-07-31T10:16:38;1.85;;;0.82;;
29168;SDS011;16219;42.864;23.360;2023-07-31T10:19:06;0.98;;;0.47;;
29168;SDS011;16219;42.864;23.360;2023-07-31T10:21:35;0.57;;;0.55;;
29168;SDS011;16219;42.864;23.360;2023-07-31T10:24:04;0.65;;;0.65;;
29168;SDS011;16219;42.864;23.360;2023-07-31T10:26:32;0.73;;;0.73;;
29168;SDS011;16219;42.864;23.360;2023-07-31T10:29:03;0.65;;;0.43;;
29168;SDS011;16219;42.864;23.360;2023-07-31T10:31:32;0.82;;;0.82;;
29168;SDS011;16219;42.864;23.360;2023-07-31T10:34:00;1.23;;;0.82;;
29168;SDS011;16219;42.864;23.360;2023-07-31T10:36:28;1.48;;;0.85;;
29168;SDS011;16219;42.864;23.360;2023-07-31T10:38:55;0.60;;;0.57;;
29168;SDS011;16219;42.864;23.360;2023-07-31T10:41:28;1.10;;;0.68;;
29168;SDS011;16219;42.864;23.360;2023-07-31T10:43:57;0.50;;;0.50;;
29168;SDS011;16219;42.864;23.360;2023-07-31T10:46:27;0.43;;;0.43;;
29168;SDS011;16219;42.864;23.360;2023-07-31T10:48:58;0.80;;;0.68;;
29168;SDS011;16219;42.864;23.360;2023-07-31T10:51:32;0.43;;;0.43;;
29168;SDS011;16219;42.864;23.360;2023-07-31T10:54:11;0.63;;;0.63;;
29168;SDS011;16219;42.864;23.360;2023-07-31T10:56:38;0.32;;;0.22;;
29168;SDS011;16219;42.864;23.360;2023-07-31T10:59:05;0.65;;;0.60;;
29168;SDS011;16219;42.864;23.360;2023-07-31T11:01:51;1.52;;;1.27;;
29168;SDS011;16219;42.864;23.360;2023-07-31T11:04:22;0.65;;;0.65;;
29168;SDS011;16219;42.864;23.360;2023-07-31T11:06:56;0.52;;;0.52;;
29168;SDS011;16219;42.864;23.360;2023-07-31T11:09:25;0.30;;;0.30;;
29168;SDS011;16219;42.864;23.360;2023-07-31T11:11:57;0.88;;;0.52;;
29168;SDS011;16219;42.864;23.360;2023-07-31T11:14:25;0.50;;;0.50;;
29168;SDS011;16219;42.864;23.360;2023-07-31T11:16:54;1.42;;;0.77;;
29168;SDS011;16219;42.864;23.360;2023-07-31T11:19:22;1.25;;;0.70;;
29168;SDS011;16219;42.864;23.360;2023-07-31T11:21:50;0.40;;;0.40;;
29168;SDS011;16219;42.864;23.360;2023-07-31T11:24:18;0.50;;;0.50;;
29168;SDS011;16219;42.864;23.360;2023-07-31T11:26:50;0.30;;;0.30;;
29168;SDS011;16219;42.864;23.360;2023-07-31T11:29:18;0.55;;;0.55;;
29168;SDS011;16219;42.864;23.360;2023-07-31T11:31:46;0.52;;;0.52;;
29168;SDS011;16219;42.864;23.360;2023-07-31T11:34:16;3.03;;;0.50;;
29168;SDS011;16219;42.864;23.360;2023-07-31T11:36:52;0.57;;;0.52;;
29168;SDS011;16219;42.864;23.360;2023-07-31T11:39:21;0.83;;;0.50;;
29168;SDS011;16219;42.864;23.360;2023-07-31T11:41:48;0.63;;;0.30;;
29168;SDS011;16219;42.864;23.360;2023-07-31T11:44:16;5.43;;;0.63;;
29168;SDS011;16219;42.864;23.360;2023-07-31T11:46:43;0.40;;;0.40;;
29168;SDS011;16219;42.864;23.360;2023-07-31T11:49:10;0.50;;;0.50;;
29168;SDS011;16219;42.864;23.360;2023-07-31T11:51:39;0.65;;;0.55;;
29168;SDS011;16219;42.864;23.360;2023-07-31T11:54:07;0.80;;;0.63;;
29168;SDS011;16219;42.864;23.360;2023-07-31T11:56:37;0.35;;;0.35;;
29168;SDS011;16219;42.864;23.360;2023-07-31T11:59:04;0.50;;;0.50;;
29168;SDS011;16219;42.864;23.360;2023-07-31T12:01:34;0.20;;;0.20;;
29168;SDS011;16219;42.864;23.360;2023-07-31T12:04:01;0.57;;;0.57;;
29168;SDS011;16219;42.864;23.360;2023-07-31T12:06:33;0.65;;;0.65;;
29168;SDS011;16219;42.864;23.360;2023-07-31T12:09:03;0.40;;;0.40;;
29168;SDS011;16219;42.864;23.360;2023-07-31T12:11:31;0.70;;;0.50;;
29168;SDS011;16219;42.864;23.360;2023-07-31T12:14:18;0.98;;;0.75;;
29168;SDS011;16219;42.864;23.360;2023-07-31T12:16:47;14.07;;;0.40;;
29168;SDS011;16219;42.864;23.360;2023-07-31T12:19:14;0.90;;;0.70;;
29168;SDS011;16219;42.864;23.360;2023-07-31T12:21:42;1.15;;;0.73;;
29168;SDS011;16219;42.864;23.360;2023-07-31T12:24:12;0.57;;;0.57;;
29168;SDS011;16219;42.864;23.360;2023-07-31T12:26:39;0.43;;;0.43;;
29168;SDS011;16219;42.864;23.360;2023-07-31T12:29:07;1.48;;;1.25;;
29168;SDS011;16219;42.864;23.360;2023-07-31T12:31:35;0.70;;;0.70;;
29168;SDS011;16219;42.864;23.360;2023-07-31T12:34:02;1.02;;;0.60;;
29168;SDS011;16219;42.864;23.360;2023-07-31T12:36:30;1.48;;;0.88;;
29168;SDS011;16219;42.864;23.360;2023-07-31T12:39:01;2.83;;;1.27;;
29168;SDS011;16219;42.864;23.360;2023-07-31T12:41:33;2.83;;;1.30;;
29168;SDS011;16219;42.864;23.360;2023-07-31T12:44:01;0.85;;;0.82;;
29168;SDS011;16219;42.864;23.360;2023-07-31T12:46:29;2.88;;;1.10;;
29168;SDS011;16219;42.864;23.360;2023-07-31T12:48:57;0.98;;;0.93;;
29168;SDS011;16219;42.864;23.360;2023-07-31T12:51:25;3.65;;;1.83;;
29168;SDS011;16219;42.864;23.360;2023-07-31T12:53:52;1.60;;;1.08;;
29168;SDS011;16219;42.864;23.360;2023-07-31T12:56:21;2.47;;;1.63;;
29168;SDS011;16219;42.864;23.360;2023-07-31T12:58:50;0.93;;;0.57;;
29168;SDS011;16219;42.864;23.360;2023-07-31T13:01:17;0.65;;;0.65;;
29168;SDS011;16219;42.864;23.360;2023-07-31T13:03:45;0.80;;;0.80;;
29168;SDS011;16219;42.864;23.360;2023-07-31T13:06:13;0.68;;;0.65;;
29168;SDS011;16219;42.864;23.360;2023-07-31T13:08:41;0.32;;;0.32;;
29168;SDS011;16219;42.864;23.360;2023-07-31T13:11:09;0.82;;;0.82;;
29168;SDS011;16219;42.864;23.360;2023-07-31T13:13:36;0.95;;;0.90;;
29168;SDS011;16219;42.864;23.360;2023-07-31T13:16:06;1.02;;;1.00;;
29168;SDS011;16219;42.864;23.360;2023-07-31T13:18:34;1.83;;;1.08;;
29168;SDS011;16219;42.864;23.360;2023-07-31T13:21:02;1.00;;;1.00;;
29168;SDS011;16219;42.864;23.360;2023-07-31T13:23:29;0.88;;;0.88;;
29168;SDS011;16219;42.864;23.360;2023-07-31T13:25:57;0.88;;;0.63;;
29168;SDS011;16219;42.864;23.360;2023-07-31T13:28:25;1.77;;;1.35;;
29168;SDS011;16219;42.864;23.360;2023-07-31T13:30:53;0.57;;;0.57;;
29168;SDS011;16219;42.864;23.360;2023-07-31T13:33:22;0.90;;;0.90;;
29168;SDS011;16219;42.864;23.360;2023-07-31T13:35:49;1.08;;;0.93;;
29168;SDS011;16219;42.864;23.360;2023-07-31T13:38:17;0.93;;;0.88;;
29168;SDS011;16219;42.864;23.360;2023-07-31T13:40:45;0.65;;;0.60;;
29168;SDS011;16219;42.864;23.360;2023-07-31T13:43:13;1.30;;;0.55;;
29168;SDS011;16219;42.864;23.360;2023-07-31T13:45:40;1.42;;;1.00;;
29168;SDS011;16219;42.864;23.360;2023-07-31T13:48:08;1.25;;;1.00;;
29168;SDS011;16219;42.864;23.360;2023-07-31T13:50:37;0.73;;;0.73;;
29168;SDS011;16219;42.864;23.360;2023-07-31T13:53:06;0.85;;;0.85;;
29168;SDS011;16219;42.864;23.360;2023-07-31T13:55:34;1.40;;;0.85;;
29168;SDS011;16219;42.864;23.360;2023-07-31T13:58:01;2.35;;;0.80;;
29168;SDS011;16219;42.864;23.360;2023-07-31T14:00:29;1.38;;;1.10;;
29168;SDS011;16219;42.864;23.360;2023-07-31T14:02:57;0.98;;;0.55;;
29168;SDS011;16219;42.864;23.360;2023-07-31T14:05:24;1.33;;;1.08;;
29168;SDS011;16219;42.864;23.360;2023-07-31T14:07:53;0.70;;;0.70;;
29168;SDS011;16219;42.864;23.360;2023-07-31T14:10:21;0.93;;;0.93;;
29168;SDS011;16219;42.864;23.360;2023-07-31T14:12:48;3.85;;;1.08;;
29168;SDS011;16219;42.864;23.360;2023-07-31T14:15:15;1.48;;;0.80;;
29168;SDS011;16219;42.864;23.360;2023-07-31T14:17:43;1.70;;;0.60;;
29168;SDS011;16219;42.864;23.360;2023-07-31T14:20:10;1.08;;;0.80;;
29168;SDS011;16219;42.864;23.360;2023-07-31T14:22:39;3.58;;;0.88;;
29168;SDS011;16219;42.864;23.360;2023-07-31T14:25:08;1.65;;;0.35;;
29168;SDS011;16219;42.864;23.360;2023-07-31T14:27:35;0.65;;;0.65;;
29168;SDS011;16219;42.864;23.360;2023-07-31T14:30:03;0.57;;;0.57;;
29168;SDS011;16219;42.864;23.360;2023-07-31T14:32:30;0.38;;;0.38;;
29168;SDS011;16219;42.864;23.360;2023-07-31T14:34:58;0.80;;;0.80;;